Tuesday, July 25, 2017, 2:40 AM EDT

KW99, Petersburg, Grant County Airport

Location: Petersburg, WV, United States Lat: 38.983
Local Time: 2:40 AM EDT ( 6:40 GMT) Lon: -79.133
Time Zone: US/Eastern Elev: 961 ft

Show me the last for .
Show Decoded

2017-07-25 02:10 METAR KW99 250610Z AUTO 31004KT 10SM BKN046 OVC050 22/17 A3004 RMK AO2 T02210165
                 =
2017-07-25 01:50 METAR KW99 250550Z AUTO 00000KT 10SM SCT045 BKN050 22/17 A3003 RMK AO2 T02210167
                 10278 20221 403240212 =
2017-07-25 01:30 METAR KW99 250530Z AUTO 00000KT 10SM SCT047 BKN050 22/17 A3003 RMK AO2 T02210168
                 =
2017-07-25 01:10 METAR KW99 250510Z AUTO 03004KT 10SM SCT050 23/17 A3002 RMK AO2 T02250174 =
2017-07-25 00:50 METAR KW99 250450Z AUTO 05005KT 10SM BKN055 23/18 A3001 RMK AO2 T02300181 =
2017-07-25 00:30 METAR KW99 250430Z AUTO 01003KT 10SM SCT048 BKN060 24/19 A3001 RMK AO2 T02350186
                 =
2017-07-25 00:10 METAR KW99 250410Z AUTO 04004KT 10SM SCT044 SCT050 BKN060 24/19 A3000 RMK AO2
                 T02400188 =
2017-07-24 23:50 METAR KW99 250350Z AUTO 03004KT 10SM SCT046 SCT060 BKN070 24/19 A3000 RMK AO2
                 T02400190 =
2017-07-24 23:30 METAR KW99 250330Z AUTO 03004KT 10SM SCT048 BKN050 OVC070 25/19 A2998 RMK AO2
                 T02450192 =
2017-07-24 23:10 METAR KW99 250310Z AUTO 04003KT 10SM SCT043 BKN050 BKN070 25/19 A2998 RMK AO2
                 T02490192 =
2017-07-24 22:50 METAR KW99 250250Z AUTO 01003KT 10SM SCT049 SCT060 SCT070 25/19 A2998 RMK AO2
                 T02480192 =
2017-07-24 22:30 METAR KW99 250230Z AUTO 36003KT 10SM SCT046 BKN070 25/19 A2997 RMK AO2 T02480194
                 =
2017-07-24 22:10 METAR KW99 250210Z AUTO 30005KT 10SM CLR 25/19 A2997 RMK AO2 T02470193
2017-07-24 21:50 METAR KW99 250150Z AUTO 28006KT 10SM CLR 25/19 A2996 RMK AO2 T02540191 =
2017-07-24 21:30 METAR KW99 250130Z AUTO 30007KT 10SM SCT080 27/19 A2994 RMK AO2 T02660188 =
2017-07-24 21:10 METAR KW99 250110Z AUTO 29007KT 10SM SCT090 27/19 A2994 RMK AO2 T02670190 =
2017-07-24 20:50 METAR KW99 250050Z AUTO 29008KT 10SM SCT060 SCT075 OVC090 27/19 A2993 RMK AO2
                 T02700187 =
2017-07-24 20:30 METAR KW99 250030Z AUTO 30007KT 10SM SCT060 BKN070 OVC090 27/19 A2992 RMK AO2
                 T02740189 =
2017-07-24 20:10 METAR KW99 250010Z AUTO 31009KT 10SM SCT060 SCT070 BKN080 28/19 A2992 RMK AO2
                 T02770186 =
2017-07-24 19:50 METAR KW99 242350Z AUTO 31004KT 10SM CLR 27/20 A2991 RMK AO2 T02710201 10324
                 20271 =
2017-07-24 19:30 METAR KW99 242330Z AUTO 28004KT 10SM CLR 28/20 A2990 RMK AO2 T02800197 =
2017-07-24 19:10 METAR KW99 242310Z AUTO 25006KT 10SM SCT090 28/19 A2989 RMK AO2 T02830194 =
2017-07-24 18:50 METAR KW99 242250Z AUTO 26012KT 10SM BKN090 BKN120 29/19 A2989 RMK AO2 T02850193
                 =
2017-07-24 18:30 METAR KW99 242230Z AUTO 26012KT 10SM SCT100 BKN120 29/20 A2989 RMK AO2 T02890195
                 =
2017-07-24 18:10 METAR KW99 242210Z AUTO 25010G15KT 10SM BKN080 OVC110 29/20 A2989 RMK AO2
                 T02900195 =
2017-07-24 17:50 METAR KW99 242150Z AUTO 25009G14KT 10SM SCT075 OVC090 29/19 A2989 RMK AO2
                 T02930188 =
2017-07-24 17:30 METAR KW99 242130Z AUTO 24007KT 10SM BKN075 OVC090 29/18 A2989 RMK AO2 T02930179
                 =
2017-07-24 17:10 METAR KW99 242110Z AUTO 23010G15KT 10SM OVC090 29/18 A2988 RMK AO2 T02940177 =
2017-07-24 16:50 METAR KW99 242050Z AUTO 24003KT 10SM OVC090 29/18 A2987 RMK AO2 T02930184 =
2017-07-24 16:30 METAR KW99 242030Z AUTO 29007KT 10SM SCT080 OVC090 30/18 A2987 RMK AO2 T02990177
                 =
2017-07-24 16:10 METAR KW99 242010Z AUTO 27011KT 10SM SCT070 BKN090 BKN110 31/17 A2987 RMK AO2
                 T03060173 =
2017-07-24 15:50 METAR KW99 241950Z AUTO 27006KT 10SM SCT070 SCT085 31/16 A2986 RMK AO2 T03110158
                 =
2017-07-24 15:30 METAR KW99 241930Z AUTO 23007KT 10SM SCT070 SCT085 32/17 A2987 RMK AO2 T03170170
                 =
2017-07-24 15:10 METAR KW99 241910Z AUTO 27006KT 10SM SCT070 SCT085 31/17 A2987 RMK AO2 T03100171
                 =
2017-07-24 14:50 METAR KW99 241850Z AUTO 29008KT 10SM SCT090 32/17 A2987 RMK AO2 T03190170 =
2017-07-24 14:10 METAR KW99 241810Z AUTO 25008G14KT 10SM SCT065 BKN080 BKN090 31/17 A2987 RMK AO2
                 T03090171 =
2017-07-24 13:50 METAR KW99 241750Z AUTO 26006KT 10SM SCT065 BKN080 BKN085 32/19 A2987 RMK AO2
                 T03180185 10318 20249 =
2017-07-24 13:30 METAR KW99 241730Z AUTO 24006KT 10SM SCT065 BKN080 BKN090 31/18 A2987 RMK AO2
                 T03120183 =
2017-07-24 13:10 METAR KW99 241710Z AUTO 25007KT 10SM SCT055 SCT080 BKN085 30/18 A2987 RMK AO2
                 T03020183 =
2017-07-24 12:50 METAR KW99 241650Z AUTO 28004KT 10SM SCT055 BKN080 30/18 A2987 RMK AO2 T02980180
                 =
2017-07-24 12:30 METAR KW99 241630Z AUTO 28010G15KT 10SM SCT055 SCT065 31/18 A2987 RMK AO2
                 T03050182 =
2017-07-24 12:10 METAR KW99 241610Z AUTO 26009KT 10SM SCT050 SCT065 SCT095 30/19 A2988 RMK AO2
                 T03030193 =
2017-07-24 11:50 METAR KW99 241550Z AUTO 24007KT 220V310 10SM SCT055 SCT065 SCT095 29/19 A2988
                 RMK AO2 T02940187 =
2017-07-24 11:30 METAR KW99 241530Z AUTO 26010G15KT 10SM SCT060 SCT065 29/19 A2988 RMK AO2
                 T02930186 =
2017-07-24 11:10 METAR KW99 241510Z AUTO 26009G16KT 10SM CLR 29/18 A2988 RMK AO2 T02900184 =
2017-07-24 10:50 METAR KW99 241450Z AUTO 27010KT 10SM CLR 29/19 A2988 RMK AO2 T02870188 =
2017-07-24 10:30 METAR KW99 241430Z AUTO 28010G18KT 10SM CLR 29/19 A2988 RMK AO2 T02850189 =
2017-07-24 10:10 METAR KW99 241410Z AUTO 27009G15KT 10SM CLR 28/19 A2988 RMK AO2 T02810189 =
2017-07-24 09:50 METAR KW99 241350Z AUTO 25007G15KT 10SM CLR 28/20 A2988 RMK AO2 T02770195 =
2017-07-24 09:30 METAR KW99 241330Z AUTO 26012KT 10SM CLR 27/19 A2987 RMK AO2 T02740190 =
2017-07-24 09:10 METAR KW99 241310Z AUTO 27013G19KT 10SM CLR 27/19 RMK AO2 T02700187 =
2017-07-24 08:50 METAR KW99 241250Z AUTO 28014G21KT 10SM CLR 27/19 A2987 RMK AO2 T02680186 =
2017-07-24 08:30 METAR KW99 241230Z AUTO 27013KT 10SM CLR 27/18 A2987 RMK AO2 T02650182 =
2017-07-24 08:10 METAR KW99 241210Z AUTO 27007KT 10SM CLR 26/19 A2987 RMK AO2 T02590190 =
2017-07-24 07:50 METAR KW99 241150Z AUTO 00000KT 10SM CLR 25/20 A2986 RMK AO2 T02460196 10267
                 20212 =
2017-07-24 07:30 METAR KW99 241130Z AUTO 00000KT 10SM CLR 24/19 A2986 RMK AO2 T02400194 =
2017-07-24 07:10 METAR KW99 241110Z AUTO 32003KT 10SM CLR 24/19 A2986 RMK AO2 T02400187 =
2017-07-24 06:50 METAR KW99 241050Z AUTO 27004KT 10SM CLR 23/19 A2985 RMK AO2 T02300187 =
2017-07-24 06:30 METAR KW99 241030Z AUTO 28004KT 10SM CLR 22/19 A2984 RMK AO2 T02190188 =
2017-07-24 06:10 METAR KW99 241010Z AUTO 27003KT 10SM CLR 22/19 A2984 RMK AO2 T02180190 =
2017-07-24 05:50 METAR KW99 240950Z AUTO 28003KT 10SM SCT042 22/19 A2982 RMK AO2 T02230191 =
2017-07-24 05:30 METAR KW99 240930Z AUTO 00000KT 10SM SCT042 22/20 A2982 RMK AO2 T02190199 =
2017-07-24 05:10 METAR KW99 240910Z AUTO 00000KT 10SM CLR 21/20 A2981 RMK AO2 T02130195 =
2017-07-24 04:50 METAR KW99 240850Z AUTO 00000KT 10SM SCT065 22/20 A2981 RMK AO2 T02240196 =
2017-07-24 04:30 METAR KW99 240830Z AUTO 24003KT 10SM SCT065 24/20 A2980 RMK AO2 T02370195 =
2017-07-24 04:10 METAR KW99 240810Z AUTO 31003KT 10SM SCT040 23/20 A2980 RMK AO2 T02300196 =
2017-07-24 03:50 METAR KW99 240750Z AUTO 00000KT 10SM SCT040 SCT050 SCT055 24/19 A2980 RMK AO2
                 T02390193 =
2017-07-24 03:30 METAR KW99 240730Z AUTO 00000KT 10SM SCT042 24/19 A2979 RMK AO2 T02360193 =
2017-07-24 03:10 METAR KW99 240710Z AUTO 12003KT 10SM SCT120 25/19 A2979 RMK AO2 T02470189 =
2017-07-24 02:50 METAR KW99 240650Z AUTO 00000KT 10SM SCT120 26/18 A2979 RMK AO2 T02570184 =

Support USWX by starting your Amazon purchase here.